Latest Weather Observations for Inner Beacon

IDQ60801

Issued at 11:32 am EST Saturday 30 July 2016 (issued every 30 minutes, with the page automatically refreshed every 10 minutes)

About weather observations | Map of weather stations | Latest weather observations for QLD | Other Formats
Station Details ID: 040926 Name: INNER RECIPROCAL MARKER Lat: -27.26 Lon: 153.24 Height: 20.0 m
Data from the previous 72 hours. | See also: Recent months for locations in Queensland
Date/Time
EST
Temp
°C
App
Temp
°C
Dew
Point
°C
Rel
Hum
%
Delta-T
°C
Wind Press
QNH
hPa
Press
MSL
hPa
Rain since
9am
mm
Dir  Spd
km/h
Gust
km/h
Spd
kts
Gust
kts
30/11:30am - - - - - SSE 6 6 3 3 - - -
30/11:00am - - - - - SSE 6 7 3 4 - - -
30/10:30am - - - - - S 7 9 4 5 - - -
30/10:00am - - - - - SW 6 7 3 4 - - -
30/09:30am - - - - - W 4 6 2 3 - - -
30/09:00am - - - - - WNW 6 7 3 4 - - -
30/08:30am - - - - - W 11 13 6 7 - - -
30/08:00am - - - - - W 13 15 7 8 - - -
30/07:30am - - - - - WSW 9 13 5 7 - - -
30/07:00am - - - - - SW 9 11 5 6 - - -
30/06:30am - - - - - SSW 9 13 5 7 - - -
30/06:00am - - - - - SSW 11 13 6 7 - - -
30/05:30am - - - - - W 13 15 7 8 - - -
30/05:00am - - - - - W 11 13 6 7 - - -
30/04:30am - - - - - W 6 7 3 4 - - -
30/04:00am - - - - - WSW 6 7 3 4 - - -
30/03:30am - - - - - WSW 7 11 4 6 - - -
30/03:00am - - - - - W 11 13 6 7 - - -
30/02:30am - - - - - W 13 15 7 8 - - -
30/02:00am - - - - - W 9 11 5 6 - - -
30/01:30am - - - - - W 13 15 7 8 - - -
30/01:00am - - - - - WSW 19 28 10 15 - - -
30/12:30am - - - - - NW 11 13 6 7 - - -
30/12:00am - - - - - WNW 11 13 6 7 - - -
 
Date/Time
EST
Temp
°C
App
Temp
°C
Dew
Point
°C
Rel
Hum
%
Delta-T
°C
Wind Press
QNH
hPa
Press
MSL
hPa
Rain since
9am
mm
Dir  Spd
km/h
Gust
km/h
Spd
kts
Gust
kts
29/11:30pm - - - - - NW 11 13 6 7 - - -
29/11:00pm - - - - - NW 11 13 6 7 - - -
29/10:30pm - - - - - WNW 11 13 6 7 - - -
29/10:00pm - - - - - NW 13 15 7 8 - - -
29/09:30pm - - - - - WNW 9 11 5 6 - - -
29/09:00pm - - - - - NNW 9 9 5 5 - - -
29/08:30pm - - - - - N 11 11 6 6 - - -
29/08:00pm - - - - - NNE 11 11 6 6 - - -
29/07:30pm - - - - - NNE 9 11 5 6 - - -
29/07:00pm - - - - - NE 13 13 7 7 - - -
29/06:30pm - - - - - NE 13 15 7 8 - - -
29/06:00pm - - - - - NE 13 17 7 9 - - -
29/05:30pm - - - - - N 15 15 8 8 - - -
29/05:00pm - - - - - NNE 13 15 7 8 - - -
29/04:30pm - - - - - NNE 11 13 6 7 - - -
29/04:00pm - - - - - NE 13 13 7 7 - - -
29/03:30pm - - - - - NE 11 13 6 7 - - -
29/03:00pm - - - - - NE 9 11 5 6 - - -
29/02:30pm - - - - - ENE 9 11 5 6 - - -
29/02:00pm - - - - - ENE 9 9 5 5 - - -
29/01:30pm - - - - - ENE 6 7 3 4 - - -
29/01:00pm - - - - - E 6 6 3 3 - - -
29/12:30pm - - - - - E 6 6 3 3 - - -
29/12:00pm - - - - - E 4 6 2 3 - - -
29/11:30am - - - - - ENE 2 6 1 3 - - -
29/11:00am - - - - - CALM 0 2 0 1 - - -
29/10:30am - - - - - SE 4 6 2 3 - - -
29/10:00am - - - - - SSW 6 7 3 4 - - -
29/09:30am - - - - - SSW 7 9 4 5 - - -
29/09:00am - - - - - SW 9 11 5 6 - - -
29/08:30am - - - - - SW 13 17 7 9 - - -
29/08:00am - - - - - SSW 17 19 9 10 - - -
29/07:30am - - - - - SSW 17 19 9 10 - - -
29/07:00am - - - - - SW 19 20 10 11 - - -
29/06:30am - - - - - SSW 15 17 8 9 - - -
29/06:00am - - - - - SW 13 17 7 9 - - -
29/05:30am - - - - - SW 13 17 7 9 - - -
29/05:00am - - - - - SSW 15 17 8 9 - - -
29/04:30am - - - - - SSW 13 17 7 9 - - -
29/04:00am - - - - - SSW 13 15 7 8 - - -
29/03:30am - - - - - SSW 13 15 7 8 - - -
29/03:00am - - - - - SSW 15 17 8 9 - - -
29/02:30am - - - - - SSW 17 19 9 10 - - -
29/02:00am - - - - - SW 15 15 8 8 - - -
29/01:30am - - - - - WSW 15 17 8 9 - - -
29/01:00am - - - - - WSW 15 17 8 9 - - -
29/12:30am - - - - - WSW 13 15 7 8 - - -
29/12:00am - - - - - WSW 13 15 7 8 - - -
 
Date/Time
EST
Temp
°C
App
Temp
°C
Dew
Point
°C
Rel
Hum
%
Delta-T
°C
Wind Press
QNH
hPa
Press
MSL
hPa
Rain since
9am
mm
Dir  Spd
km/h
Gust
km/h
Spd
kts
Gust
kts
28/11:30pm - - - - - WSW 15 17 8 9 - - -
28/11:00pm - - - - - WSW 15 17 8 9 - - -
28/10:30pm - - - - - WSW 13 13 7 7 - - -
28/10:00pm - - - - - W 9 11 5 6 - - -
28/09:30pm - - - - - SW 9 9 5 5 - - -
28/09:00pm - - - - - SW 6 6 3 3 - - -
28/08:30pm - - - - - SSW 6 6 3 3 - - -
28/08:00pm - - - - - S 6 6 3 3 - - -
28/07:30pm - - - - - SSE 7 9 4 5 - - -
28/07:00pm - - - - - SSE 9 11 5 6 - - -
28/06:30pm - - - - - SSE 9 11 5 6 - - -
28/06:00pm - - - - - S 2 6 1 3 - - -
28/05:30pm - - - - - CALM 0 0 0 0 - - -
28/05:00pm - - - - - CALM 0 0 0 0 - - -
28/04:30pm - - - - - CALM 0 0 0 0 - - -
28/04:00pm - - - - - CALM 0 0 0 0 - - -
28/03:30pm - - - - - CALM 0 0 0 0 - - -
28/03:00pm - - - - - CALM 0 0 0 0 - - -
28/02:30pm - - - - - W 2 2 1 1 - - -
28/02:00pm - - - - - WSW 2 2 1 1 - - -
28/01:30pm - - - - - WSW 4 4 2 2 - - -
28/01:00pm - - - - - SW 4 4 2 2 - - -
28/12:30pm - - - - - SSW 9 9 5 5 - - -
28/12:00pm - - - - - SW 9 11 5 6 - - -
28/11:30am - - - - - SW 11 13 6 7 - - -
28/11:00am - - - - - SW 15 17 8 9 - - -
28/10:30am - - - - - SSW 19 20 10 11 - - -
28/10:00am - - - - - SW 22 24 12 13 - - -
28/09:30am - - - - - SW 24 28 13 15 - - -
28/09:00am - - - - - SW 19 20 10 11 - - -
28/08:30am - - - - - SW 22 26 12 14 - - -
28/08:00am - - - - - SW 22 24 12 13 - - -
28/07:30am - - - - - SW 19 20 10 11 - - -
28/07:00am - - - - - SW 20 22 11 12 - - -
28/06:30am - - - - - SW 22 26 12 14 - - -
28/06:00am - - - - - SW 22 26 12 14 - - -
28/05:30am - - - - - SW 20 24 11 13 - - -
28/05:00am - - - - - SW 19 20 10 11 - - -
28/04:30am - - - - - SW 19 20 10 11 - - -
28/04:00am - - - - - SW 20 26 11 14 - - -
28/03:30am - - - - - SW 22 26 12 14 - - -
28/03:00am - - - - - SW 24 30 13 16 - - -
28/02:30am - - - - - SW 20 24 11 13 - - -
28/02:00am - - - - - SW 22 26 12 14 - - -
28/01:30am - - - - - WSW 22 24 12 13 - - -
28/01:00am - - - - - SW 19 22 10 12 - - -
28/12:30am - - - - - WSW 19 22 10 12 - - -
28/12:00am - - - - - WSW 17 19 9 10 - - -
 
Date/Time
EST
Temp
°C
App
Temp
°C
Dew
Point
°C
Rel
Hum
%
Delta-T
°C
Wind Press
QNH
hPa
Press
MSL
hPa
Rain since
9am
mm
Dir  Spd
km/h
Gust
km/h
Spd
kts
Gust
kts
27/11:30pm - - - - - SW 17 20 9 11 - - -
27/11:00pm - - - - - SW 17 22 9 12 - - -
27/10:30pm - - - - - SW 20 24 11 13 - - -
27/10:00pm - - - - - SW 20 24 11 13 - - -
27/09:30pm - - - - - SW 15 17 8 9 - - -
27/09:00pm - - - - - WSW 17 20 9 11 - - -
27/08:30pm - - - - - WNW 9 15 5 8 - - -
27/08:00pm - - - - - NNW 11 15 6 8 - - -
27/07:30pm - - - - - NW 9 11 5 6 - - -
27/07:00pm - - - - - NW 11 13 6 7 - - -
27/06:30pm - - - - - WNW 13 17 7 9 - - -
27/06:00pm - - - - - W 15 17 8 9 - - -
27/05:30pm - - - - - W 17 24 9 13 - - -
27/05:00pm - - - - - W 11 13 6 7 - - -
27/04:30pm - - - - - WNW 9 13 5 7 - - -
27/04:00pm - - - - - WSW 13 17 7 9 - - -
27/03:30pm - - - - - W 17 20 9 11 - - -
27/03:00pm - - - - - WSW 20 24 11 13 - - -
27/02:30pm - - - - - W 20 24 11 13 - - -
27/02:00pm - - - - - W 11 15 6 8 - - -
27/01:30pm - - - - - WSW 17 22 9 12 - - -
27/01:00pm - - - - - WSW 28 32 15 17 - - -
27/12:30pm - - - - - W 32 37 17 20 - - -
27/12:00pm - - - - - WSW 22 26 12 14 - - -

Other Formats:

Comma delimited format used in spreadsheet applications
http://www.bom.gov.au/fwo/IDQ60801/IDQ60801.94590.axf

JavaScript Object Notation format (JSON) in row-major order
http://www.bom.gov.au/fwo/IDQ60801/IDQ60801.94590.json